NZQN/ZQN METAR and TAF weather

Enter ICAO airport designator
Station Type Date Time Source
NZQN METAR UTC NOAA

Error!


Station Type Date Time Source
NZQN Decoded METAR UTC NOAA

Error!

Station Type Date Time Source
NZQN TAF 2020/07/05 02:16 UTC NOAA

TAF
AMD NZQN 050216Z 0502/0512 VRB02KT 9999 -RA SCT010 BKN020
TEMPO 0502/0505 7000 RA BKN008
BECMG 0506/0508 04010KT

Example: see airport list